Time;durP1;ratioP1;P1;durP2;ratioP2;P2;SDS_P1;SDS_P2;PMS_P1;PMS_P2;Temp;Humidity;BMP_temperature;BMP_pressure;BME280_temperature;BME280_humidity;BME280_pressure;Samples;Min_cycle;Max_cycle;Signal;HPM_P1;HPM_P2
2022/04/20 00:00:59;;;;;;;5.60;3.58;;;8.50;99.90;;;;;;5032013;28;20787;-64
2022/04/20 00:03:25;;;;;;;4.57;3.03;;;8.50;99.90;;;;;;5016578;28;20041;-64
2022/04/20 00:05:50;;;;;;;7.57;4.68;;;8.50;99.90;;;;;;5034586;28;20052;-64
2022/04/20 00:08:16;;;;;;;4.57;3.83;;;8.40;99.90;;;;;;5010755;28;20054;-64
2022/04/20 00:10:42;;;;;;;4.75;3.40;;;8.40;99.90;;;;;;4997363;28;20050;-64
2022/04/20 00:13:07;;;;;;;5.35;3.03;;;8.30;99.90;;;;;;5017736;28;20495;-64
2022/04/20 00:15:33;;;;;;;4.80;3.58;;;8.30;99.90;;;;;;5036831;28;20118;-64
2022/04/20 00:17:58;;;;;;;4.70;3.70;;;8.20;99.90;;;;;;5036560;28;20731;-64
2022/04/20 00:20:24;;;;;;;5.50;3.58;;;8.10;99.90;;;;;;5019455;28;20060;-64
2022/04/20 00:22:49;;;;;;;4.85;3.35;;;8.00;99.90;;;;;;5019338;28;20051;-64
2022/04/20 00:25:15;;;;;;;5.45;3.92;;;8.00;99.90;;;;;;5019511;28;20790;-64
2022/04/20 00:27:40;;;;;;;5.97;3.67;;;8.00;99.90;;;;;;5037079;28;20993;-64
2022/04/20 00:30:12;;;;;;;4.40;3.30;;;8.00;99.90;;;;;;5037067;28;20041;-65
2022/04/20 00:32:38;;;;;;;3.63;2.78;;;8.00;99.90;;;;;;5036462;28;20838;-64
2022/04/20 00:35:08;;;;;;;5.28;3.47;;;8.00;99.90;;;;;;5037758;28;20107;-64
2022/04/20 00:37:35;;;;;;;3.75;3.10;;;8.00;99.90;;;;;;5036993;28;20850;-64
2022/04/20 00:40:02;;;;;;;3.85;3.45;;;8.00;99.90;;;;;;5018502;28;20048;-64
2022/04/20 00:42:29;;;;;;;4.90;3.45;;;7.90;99.90;;;;;;5037102;28;20080;-64
2022/04/20 00:44:55;;;;;;;6.03;3.75;;;7.90;99.90;;;;;;5011686;28;20533;-64
2022/04/20 00:47:23;;;;;;;4.70;3.25;;;7.90;99.90;;;;;;4995367;28;20132;-64
2022/04/20 00:49:49;;;;;;;5.60;3.60;;;7.90;99.90;;;;;;4996603;28;20517;-64
2022/04/20 00:52:14;;;;;;;4.53;3.25;;;7.80;99.90;;;;;;4996853;28;20054;-64
2022/04/20 00:54:40;;;;;;;3.70;3.10;;;7.80;99.90;;;;;;5027927;28;20048;-64
2022/04/20 00:57:06;;;;;;;3.65;2.75;;;7.80;99.90;;;;;;4982291;28;20053;-64
2022/04/20 00:59:34;;;;;;;5.28;2.75;;;7.80;99.90;;;;;;4997649;28;20053;-64
2022/04/20 01:02:00;;;;;;;4.60;3.30;;;7.80;99.90;;;;;;5008501;28;20144;-64
2022/04/20 01:04:26;;;;;;;3.42;2.85;;;7.80;99.90;;;;;;5033228;28;20489;-64
2022/04/20 01:06:52;;;;;;;3.85;3.13;;;7.80;99.90;;;;;;5030485;28;20076;-64
2022/04/20 01:09:18;;;;;;;8.48;3.35;;;7.80;99.90;;;;;;5015928;28;20037;-64
2022/04/20 01:11:45;;;;;;;4.28;3.25;;;7.70;99.90;;;;;;5016258;28;20053;-64
2022/04/20 01:14:11;;;;;;;7.03;3.50;;;7.80;99.90;;;;;;5016095;28;20190;-64
2022/04/20 01:16:36;;;;;;;4.13;3.25;;;7.70;99.90;;;;;;5016496;28;20053;-64
2022/04/20 01:19:03;;;;;;;4.78;2.92;;;7.70;99.90;;;;;;5004257;28;20505;-64
2022/04/20 01:21:29;;;;;;;3.60;3.22;;;7.70;99.90;;;;;;5027474;28;20041;-64
2022/04/20 01:23:55;;;;;;;4.22;3.25;;;7.70;99.90;;;;;;5034154;28;20053;-64
2022/04/20 01:26:20;;;;;;;4.95;3.17;;;7.70;99.90;;;;;;5034022;28;20032;-64
2022/04/20 01:28:47;;;;;;;4.18;3.15;;;7.70;99.90;;;;;;4999366;28;20053;-64
2022/04/20 01:31:17;;;;;;;4.55;2.67;;;7.60;99.90;;;;;;4996176;28;20042;-64
2022/04/20 01:33:44;;;;;;;5.88;3.65;;;7.60;99.90;;;;;;4996954;28;20565;-63
2022/04/20 01:36:10;;;;;;;3.78;3.10;;;7.60;99.90;;;;;;4996013;28;20104;-64
2022/04/20 01:38:37;;;;;;;3.65;2.90;;;7.70;99.90;;;;;;4996120;28;20054;-65
2022/04/20 01:41:03;;;;;;;5.13;3.00;;;7.70;99.90;;;;;;4996602;28;20060;-65
2022/04/20 01:43:28;;;;;;;8.32;4.35;;;7.70;99.90;;;;;;5005802;28;20058;-65
2022/04/20 01:45:54;;;;;;;5.63;3.08;;;7.70;99.90;;;;;;5016948;28;20142;-65
2022/04/20 01:48:19;;;;;;;6.47;3.47;;;7.70;99.90;;;;;;5035653;28;20056;-65
2022/04/20 01:53:30;;;;;;;4.38;2.95;;;7.60;99.90;;;;;;5029948;28;20154;-65
2022/04/20 01:55:56;;;;;;;3.95;3.40;;;7.60;99.90;;;;;;5006978;28;20056;-65
2022/04/20 01:58:21;;;;;;;4.20;3.25;;;7.60;99.90;;;;;;5015529;28;20049;-64
2022/04/20 02:00:47;;;;;;;4.65;3.85;;;7.60;99.90;;;;;;5019093;28;20047;-64
2022/04/20 02:03:13;;;;;;;5.28;3.30;;;7.50;99.90;;;;;;4995398;28;20076;-64
2022/04/20 02:05:39;;;;;;;3.38;2.80;;;7.40;99.90;;;;;;4995852;28;20414;-64
2022/04/20 02:08:04;;;;;;;4.88;3.65;;;7.40;99.90;;;;;;4980299;28;20386;-64
2022/04/20 02:10:30;;;;;;;8.32;4.82;;;7.40;99.90;;;;;;4995171;28;20084;-64
2022/04/20 02:12:56;;;;;;;5.32;3.83;;;7.30;99.90;;;;;;4996490;28;20057;-64
2022/04/20 02:15:21;;;;;;;4.78;3.50;;;7.30;99.90;;;;;;4996497;28;20747;-64
2022/04/20 02:17:48;;;;;;;5.63;4.05;;;7.30;99.90;;;;;;4986347;28;20068;-64
2022/04/20 02:20:14;;;;;;;5.57;3.65;;;7.20;99.90;;;;;;5035769;28;20059;-64
2022/04/20 02:22:39;;;;;;;6.32;4.53;;;7.20;99.90;;;;;;5017784;28;20697;-64
2022/04/20 02:25:06;;;;;;;5.15;3.65;;;7.20;99.90;;;;;;5009622;28;20072;-64
2022/04/20 02:27:31;;;;;;;5.13;3.13;;;7.10;99.90;;;;;;4997157;28;20104;-65
2022/04/20 02:29:57;;;;;;;6.90;4.05;;;7.20;99.90;;;;;;5015394;28;20470;-64
2022/04/20 02:32:23;;;;;;;5.65;3.60;;;7.20;99.90;;;;;;5015791;28;20049;-64
2022/04/20 02:34:48;;;;;;;4.07;3.20;;;7.10;99.90;;;;;;5015909;28;20523;-64
2022/04/20 02:37:15;;;;;;;3.75;2.67;;;7.10;99.90;;;;;;5014019;28;20045;-64
2022/04/20 02:39:42;;;;;;;3.70;2.83;;;7.10;99.90;;;;;;5011968;28;20049;-64
2022/04/20 02:42:08;;;;;;;4.22;3.78;;;7.00;99.90;;;;;;5013180;28;20137;-64
2022/04/20 02:44:34;;;;;;;7.80;3.50;;;7.00;99.90;;;;;;5012513;28;20033;-64
2022/04/20 02:47:01;;;;;;;7.25;3.13;;;6.90;99.90;;;;;;5011728;28;20083;-64
2022/04/20 02:49:26;;;;;;;3.70;2.92;;;6.90;99.90;;;;;;5012677;28;20912;-64
2022/04/20 02:51:52;;;;;;;5.25;3.70;;;6.90;99.90;;;;;;5014318;28;20059;-64
2022/04/20 02:54:17;;;;;;;6.30;4.00;;;7.00;99.90;;;;;;4995124;28;20048;-64
2022/04/20 02:56:43;;;;;;;5.35;3.33;;;6.90;99.90;;;;;;4995196;28;20142;-64
2022/04/20 02:59:09;;;;;;;3.40;3.10;;;6.80;99.90;;;;;;4995001;28;20622;-64
2022/04/20 03:01:34;;;;;;;7.97;3.60;;;6.80;99.90;;;;;;5012270;28;20545;-64
2022/04/20 03:04:00;;;;;;;4.78;3.30;;;6.70;99.90;;;;;;5013439;28;20152;-64
2022/04/20 03:06:27;;;;;;;5.28;3.28;;;6.70;99.90;;;;;;4995406;28;20041;-64
2022/04/20 03:08:54;;;;;;;5.75;3.40;;;6.70;99.90;;;;;;5012568;28;20171;-64
2022/04/20 03:11:19;;;;;;;5.70;3.90;;;6.70;99.90;;;;;;5012096;28;20045;-64
2022/04/20 03:13:46;;;;;;;6.43;3.97;;;6.70;99.90;;;;;;5011909;28;20061;-64
2022/04/20 03:16:11;;;;;;;6.20;3.60;;;6.70;99.90;;;;;;4994793;28;20061;-64
2022/04/20 03:18:37;;;;;;;4.70;3.60;;;6.60;99.90;;;;;;5012196;28;20914;-64
2022/04/20 03:21:03;;;;;;;4.75;4.25;;;6.60;99.90;;;;;;4994326;28;20068;-65
2022/04/20 03:23:31;;;;;;;5.00;3.35;;;6.50;99.90;;;;;;5012150;28;20118;-64
2022/04/20 03:25:57;;;;;;;5.03;3.55;;;6.50;99.90;;;;;;5012157;28;20111;-64
2022/04/20 03:28:23;;;;;;;7.15;3.55;;;6.50;99.90;;;;;;5012050;28;20053;-64
2022/04/20 03:30:49;;;;;;;9.15;4.43;;;6.50;99.90;;;;;;5011904;28;20063;-64
2022/04/20 03:33:14;;;;;;;6.20;4.20;;;6.40;99.90;;;;;;5012398;28;20145;-64
2022/04/20 03:35:40;;;;;;;7.45;3.53;;;6.40;99.90;;;;;;5011313;28;20107;-64
2022/04/20 03:38:06;;;;;;;5.03;3.63;;;6.40;99.90;;;;;;5012382;28;20029;-64
2022/04/20 03:40:32;;;;;;;5.25;4.05;;;6.30;99.90;;;;;;4994350;28;20045;-64
2022/04/20 03:42:58;;;;;;;5.57;3.65;;;6.30;99.90;;;;;;5010938;28;20400;-64
2022/04/20 03:45:23;;;;;;;4.25;3.88;;;6.20;99.90;;;;;;5012036;28;20044;-64
2022/04/20 03:47:49;;;;;;;5.65;4.32;;;6.20;99.90;;;;;;4993949;28;20053;-64
2022/04/20 03:50:14;;;;;;;6.15;3.80;;;6.20;99.90;;;;;;5011421;28;20126;-64
2022/04/20 03:52:40;;;;;;;5.40;4.28;;;6.20;99.90;;;;;;5014663;28;20047;-64
2022/04/20 03:55:06;;;;;;;5.25;4.05;;;6.20;99.90;;;;;;5015864;28;20523;-64
2022/04/20 03:57:31;;;;;;;3.25;2.95;;;6.20;99.90;;;;;;5014719;28;20045;-64
2022/04/20 03:59:57;;;;;;;4.97;4.10;;;6.10;99.90;;;;;;5015209;28;20079;-64
2022/04/20 04:02:22;;;;;;;4.13;3.08;;;6.10;99.90;;;;;;5015824;28;20045;-64
2022/04/20 04:04:48;;;;;;;5.70;4.18;;;6.00;99.90;;;;;;5015216;28;20091;-64
2022/04/20 04:07:14;;;;;;;4.43;3.95;;;6.00;99.90;;;;;;5015997;28;20052;-64
2022/04/20 04:09:39;;;;;;;3.97;3.20;;;6.00;99.90;;;;;;5014746;28;20049;-64
2022/04/20 04:12:09;;;;;;;4.22;3.10;;;6.00;99.90;;;;;;4996916;28;20491;-64
2022/04/20 04:14:41;;;;;;;3.30;2.88;;;6.00;99.90;;;;;;5014956;28;20049;-64
2022/04/20 04:17:08;;;;;;;4.70;4.03;;;6.00;99.90;;;;;;4995045;28;20056;-64
2022/04/20 04:19:35;;;;;;;7.22;4.03;;;5.90;99.90;;;;;;4997132;28;20481;-64
2022/04/20 04:22:02;;;;;;;5.80;3.55;;;5.90;99.90;;;;;;5015185;28;20044;-64
2022/04/20 04:24:37;;;;;;;5.18;3.08;;;6.00;99.90;;;;;;5014822;28;20530;-64
2022/04/20 04:27:07;;;;;;;5.63;3.72;;;5.90;99.90;;;;;;5012791;28;20293;-64
2022/04/20 04:29:33;;;;;;;7.05;3.65;;;6.00;99.90;;;;;;5014663;28;20040;-64
2022/04/20 04:32:00;;;;;;;5.80;3.67;;;6.00;99.90;;;;;;5014231;28;20073;-64
2022/04/20 04:34:26;;;;;;;5.68;3.33;;;6.00;99.90;;;;;;5014843;28;20041;-64
2022/04/20 04:36:51;;;;;;;4.35;3.05;;;6.00;99.90;;;;;;5014439;28;20128;-64
2022/04/20 04:39:20;;;;;;;4.20;3.10;;;6.00;99.90;;;;;;4995724;28;20062;-64
2022/04/20 04:41:50;;;;;;;5.13;3.30;;;6.00;99.90;;;;;;5015001;28;20045;-64
2022/04/20 04:44:19;;;;;;;4.30;3.55;;;6.00;99.90;;;;;;5014116;28;20790;-64
2022/04/20 04:49:31;;;;;;;4.85;3.58;;;6.00;99.90;;;;;;5012932;28;20080;-64
2022/04/20 04:51:57;;;;;;;6.30;3.83;;;6.10;99.90;;;;;;5015734;28;20206;-64
2022/04/20 04:54:23;;;;;;;6.88;3.60;;;6.10;99.90;;;;;;5015875;28;20041;-64
2022/04/20 04:56:49;;;;;;;5.40;3.30;;;6.10;99.90;;;;;;5015009;28;20056;-64
2022/04/20 04:59:14;;;;;;;5.43;3.53;;;6.10;99.90;;;;;;5014456;28;20050;-65
2022/04/20 05:01:40;;;;;;;6.22;3.95;;;6.20;99.90;;;;;;5014579;28;20792;-63
2022/04/20 05:04:05;;;;;;;6.53;3.00;;;6.20;99.90;;;;;;5014498;28;20516;-64
2022/04/20 05:06:31;;;;;;;3.42;3.03;;;6.20;99.90;;;;;;4995834;28;20104;-64
2022/04/20 05:08:57;;;;;;;4.85;3.72;;;6.30;99.90;;;;;;4996493;28;20049;-64
2022/04/20 05:11:23;;;;;;;4.70;3.40;;;6.30;99.90;;;;;;5012129;28;20059;-64
2022/04/20 05:13:48;;;;;;;3.47;2.92;;;6.30;99.90;;;;;;5013634;28;20053;-64
2022/04/20 05:16:14;;;;;;;4.43;3.60;;;6.30;99.90;;;;;;5013998;28;20120;-64
2022/04/20 05:18:40;;;;;;;4.22;3.40;;;6.30;99.90;;;;;;5013794;28;20544;-64
2022/04/20 05:21:05;;;;;;;4.85;4.00;;;6.40;99.90;;;;;;5013697;28;20041;-64
2022/04/20 05:23:31;;;;;;;4.95;3.88;;;6.40;99.90;;;;;;5014010;28;20072;-64
2022/04/20 05:25:57;;;;;;;3.83;3.03;;;6.30;99.90;;;;;;5013773;28;20968;-64
2022/04/20 05:28:22;;;;;;;5.20;3.78;;;6.30;99.90;;;;;;5013290;28;20084;-64
2022/04/20 05:30:48;;;;;;;7.60;3.85;;;6.40;99.90;;;;;;5013475;28;20136;-64
2022/04/20 05:33:14;;;;;;;6.85;4.03;;;6.40;99.90;;;;;;5014082;28;20072;-64
2022/04/20 05:35:39;;;;;;;6.88;4.78;;;6.50;99.90;;;;;;5012025;28;20159;-64
2022/04/20 05:43:35;;;;;;;4.07;3.10;;;6.70;99.90;;;;;;5013178;28;20045;-65
2022/04/20 05:46:00;;;;;;;5.47;4.05;;;6.70;99.90;;;;;;4995812;28;20045;-64
2022/04/20 05:48:26;;;;;;;4.90;3.38;;;6.80;99.90;;;;;;4995559;28;20087;-65
2022/04/20 05:50:52;;;;;;;8.15;3.72;;;6.90;99.90;;;;;;5013234;28;20164;-64
2022/04/20 05:53:17;;;;;;;4.32;3.30;;;7.00;99.90;;;;;;5016698;28;20476;-64
2022/04/20 05:55:43;;;;;;;4.75;3.28;;;7.00;99.90;;;;;;5012816;28;20049;-64
2022/04/20 05:58:08;;;;;;;5.05;3.72;;;7.20;99.90;;;;;;4995712;28;20049;-66
2022/04/20 06:00:34;;;;;;;4.45;3.40;;;7.20;99.90;;;;;;4995851;28;20053;-64
2022/04/20 06:03:00;;;;;;;4.28;3.38;;;7.30;99.90;;;;;;4994426;28;20040;-64
2022/04/20 06:05:25;;;;;;;5.43;3.67;;;7.40;99.90;;;;;;5013208;28;20128;-64
2022/04/20 06:07:51;;;;;;;8.10;3.75;;;7.50;99.90;;;;;;5013568;28;20046;-64
2022/04/20 06:10:16;;;;;;;5.32;3.38;;;7.60;99.90;;;;;;4993400;28;20090;-64
2022/04/20 06:12:42;;;;;;;8.10;3.88;;;7.70;99.90;;;;;;5012390;28;20160;-64
2022/04/20 06:15:08;;;;;;;7.07;4.72;;;7.80;99.90;;;;;;5015003;28;20107;-64
2022/04/20 06:17:34;;;;;;;6.30;4.55;;;7.90;99.90;;;;;;5014104;28;20045;-64
2022/04/20 06:20:01;;;;;;;8.48;5.03;;;8.00;99.90;;;;;;5015117;28;20505;-64
2022/04/20 06:22:27;;;;;;;4.95;3.92;;;8.10;99.90;;;;;;4997060;28;20045;-65
2022/04/20 06:24:52;;;;;;;7.57;5.07;;;8.20;99.90;;;;;;5014991;28;20041;-64
2022/04/20 06:27:18;;;;;;;8.45;5.43;;;8.30;99.90;;;;;;5014744;28;20827;-64
2022/04/20 06:29:44;;;;;;;9.70;4.55;;;8.40;99.90;;;;;;5012979;28;20081;-64
2022/04/20 06:32:09;;;;;;;5.97;5.13;;;8.50;99.90;;;;;;4996864;28;20052;-64
2022/04/20 06:34:35;;;;;;;6.57;4.43;;;8.60;99.90;;;;;;4997050;28;20045;-64
2022/04/20 06:37:01;;;;;;;6.63;4.30;;;8.80;99.90;;;;;;4996691;28;20059;-65
2022/04/20 06:39:28;;;;;;;4.80;4.18;;;8.90;99.90;;;;;;4996513;28;20042;-65
2022/04/20 06:41:53;;;;;;;7.93;4.70;;;9.00;99.90;;;;;;5013698;28;20169;-64
2022/04/20 06:44:19;;;;;;;9.35;4.90;;;9.00;99.90;;;;;;5012160;28;21014;-64
2022/04/20 06:46:45;;;;;;;9.02;4.70;;;9.20;99.90;;;;;;5012175;28;20063;-64
2022/04/20 06:49:11;;;;;;;6.38;4.57;;;9.30;99.90;;;;;;5012758;28;20046;-64
2022/04/20 06:59:51;;;;;;;7.05;4.32;;;9.70;99.90;;;;;;4993464;28;20068;-64
2022/04/20 07:02:17;;;;;;;8.45;5.28;;;10.10;99.90;;;;;;5012457;28;20057;-65
2022/04/20 07:04:42;;;;;;;7.97;4.50;;;10.60;99.90;;;;;;5014148;28;20056;-65
2022/04/20 07:07:08;;;;;;;6.45;4.70;;;12.00;99.90;;;;;;5013224;28;20052;-65
2022/04/20 07:09:34;;;;;;;8.63;4.30;;;13.60;99.90;;;;;;4995756;28;20405;-65
2022/04/20 07:11:59;;;;;;;5.90;4.40;;;14.10;95.00;;;;;;5012998;28;20057;-65
2022/04/20 07:14:25;;;;;;;5.18;4.32;;;14.60;95.10;;;;;;4994950;28;20080;-65
2022/04/20 07:16:51;;;;;;;5.32;3.78;;;15.80;95.60;;;;;;4995931;28;20053;-65
2022/04/20 07:19:16;;;;;;;4.60;3.78;;;16.30;93.70;;;;;;5013485;28;20092;-65
2022/04/20 07:21:42;;;;;;;5.82;3.97;;;16.90;91.70;;;;;;5013011;28;20685;-65
2022/04/20 07:24:07;;;;;;;5.85;3.97;;;17.00;89.50;;;;;;5014574;28;20056;-64
2022/04/20 07:26:33;;;;;;;6.38;3.42;;;17.80;89.40;;;;;;5013678;28;20041;-64
2022/04/20 07:28:58;;;;;;;7.05;3.65;;;18.30;86.90;;;;;;5015750;28;20091;-64
2022/04/20 07:31:24;;;;;;;3.35;3.05;;;18.70;85.00;;;;;;5019179;28;20164;-65
2022/04/20 07:33:49;;;;;;;7.30;3.88;;;19.20;81.00;;;;;;5017766;28;20053;-65
2022/04/20 07:36:15;;;;;;;12.95;3.60;;;19.20;77.20;;;;;;5017914;28;20037;-65
2022/04/20 07:38:40;;;;;;;5.55;3.67;;;19.10;73.30;;;;;;5000381;28;20059;-64
2022/04/20 07:41:06;;;;;;;3.63;3.15;;;19.20;73.90;;;;;;5017977;28;20044;-65
2022/04/20 07:43:32;;;;;;;4.45;3.55;;;19.50;72.10;;;;;;5017466;28;20379;-65
2022/04/20 07:45:58;;;;;;;3.40;3.10;;;19.20;70.00;;;;;;4999718;28;20092;-65
2022/04/20 07:48:23;;;;;;;5.97;3.63;;;19.40;70.10;;;;;;4998542;28;20640;-64
2022/04/20 07:50:49;;;;;;;4.40;3.25;;;19.50;68.70;;;;;;5015286;28;20882;-65
2022/04/20 07:53:15;;;;;;;3.42;2.97;;;19.60;67.70;;;;;;5031993;28;20037;-65
2022/04/20 07:55:46;;;;;;;4.15;2.70;;;19.30;66.10;;;;;;5018605;28;20707;-64
2022/04/20 07:58:12;;;;;;;3.67;2.70;;;19.50;65.80;;;;;;4985467;28;20045;-65
2022/04/20 08:00:38;;;;;;;3.35;3.05;;;19.30;64.00;;;;;;5016232;28;20053;-65
2022/04/20 08:03:15;;;;;;;3.58;3.22;;;19.60;61.50;;;;;;5016359;28;20855;-65
2022/04/20 08:05:42;;;;;;;4.15;2.75;;;19.50;58.50;;;;;;4998635;28;20049;-64
2022/04/20 08:08:10;;;;;;;5.07;2.30;;;19.80;60.30;;;;;;5016295;28;20052;-65
2022/04/20 08:10:36;;;;;;;2.35;2.15;;;20.30;59.90;;;;;;5015012;28;21014;-65
2022/04/20 08:14:09;;;;;;;4.07;2.60;;;20.30;58.80;;;;;;4998239;28;20049;-65
2022/04/20 08:15:48;;;;;;;3.58;2.67;;;20.20;58.40;;;;;;4999282;28;20061;-64
2022/04/20 08:18:14;;;;;;;3.47;1.90;;;20.30;58.50;;;;;;5017452;28;20075;-65
2022/04/20 08:20:39;;;;;;;2.25;2.05;;;20.00;57.50;;;;;;5016923;28;20102;-65
2022/04/20 08:23:05;;;;;;;2.75;2.05;;;20.20;57.20;;;;;;5015969;28;20446;-65
2022/04/20 08:25:30;;;;;;;2.17;1.98;;;20.40;56.60;;;;;;4999042;28;20776;-65
2022/04/20 08:27:56;;;;;;;3.75;2.47;;;20.50;55.40;;;;;;5017542;28;20077;-65
2022/04/20 08:30:21;;;;;;;2.42;2.20;;;20.70;56.40;;;;;;4999790;28;20049;-65
2022/04/20 08:32:47;;;;;;;2.75;2.28;;;21.00;55.30;;;;;;5000891;28;20067;-65
2022/04/20 08:35:12;;;;;;;3.45;1.83;;;20.70;55.30;;;;;;4998570;28;20155;-65
2022/04/20 08:37:38;;;;;;;2.33;1.88;;;20.60;54.70;;;;;;5016994;28;20053;-64
2022/04/20 08:40:04;;;;;;;1.85;1.58;;;20.30;54.20;;;;;;4999331;28;20052;-64
2022/04/20 08:42:32;;;;;;;2.35;1.73;;;20.60;53.20;;;;;;4999353;28;20108;-65
2022/04/20 08:45:02;;;;;;;3.53;1.92;;;20.50;52.80;;;;;;5017218;28;20049;-65
2022/04/20 08:47:34;;;;;;;1.90;1.73;;;20.50;51.90;;;;;;5017659;28;20175;-65
2022/04/20 08:50:01;;;;;;;2.88;2.17;;;20.70;51.50;;;;;;5016389;28;20885;-64
2022/04/20 08:52:37;;;;;;;2.22;2.03;;;20.60;52.10;;;;;;5024798;28;20897;-65
2022/04/20 08:55:04;;;;;;;2.67;1.50;;;20.10;50.80;;;;;;5012718;28;20892;-65
2022/04/20 08:57:32;;;;;;;3.15;1.60;;;20.30;50.80;;;;;;4997343;28;20472;-64
2022/04/20 08:59:58;;;;;;;1.67;1.23;;;19.70;50.30;;;;;;4996495;28;20129;-64
2022/04/20 09:02:25;;;;;;;1.30;1.20;;;19.80;50.30;;;;;;4997154;28;20471;-65
2022/04/20 09:04:51;;;;;;;2.70;1.60;;;19.60;50.30;;;;;;4978858;28;20093;-64
2022/04/20 09:07:18;;;;;;;2.30;1.75;;;19.80;49.80;;;;;;4978039;28;20927;-64
2022/04/20 09:09:44;;;;;;;1.88;1.42;;;20.20;49.80;;;;;;4996394;28;20572;-65
2022/04/20 09:12:18;;;;;;;1.83;1.30;;;20.00;49.00;;;;;;4996675;28;20057;-64
2022/04/20 09:14:48;;;;;;;1.33;1.25;;;19.50;47.10;;;;;;4996631;28;20072;-64
2022/04/20 09:17:16;;;;;;;2.33;1.27;;;19.30;47.10;;;;;;4997015;28;20497;-64
2022/04/20 09:19:46;;;;;;;1.75;1.50;;;19.30;48.70;;;;;;4997110;28;20042;-64
2022/04/20 09:22:26;;;;;;;2.92;1.63;;;19.60;48.30;;;;;;4997270;28;20327;-64
2022/04/20 09:24:59;;;;;;;1.58;1.40;;;19.70;48.20;;;;;;4996883;28;20743;-65
2022/04/20 09:27:28;;;;;;;2.03;1.30;;;19.90;48.50;;;;;;4979152;28;20473;-64
2022/04/20 09:29:58;;;;;;;3.33;1.38;;;20.20;48.00;;;;;;4996937;28;20116;-65
2022/04/20 09:32:50;;;;;;;1.10;1.00;;;20.30;48.00;;;;;;4979504;28;20147;-65
2022/04/20 09:35:18;;;;;;;1.25;1.20;;;20.70;47.80;;;;;;4987938;28;20053;-64
2022/04/20 09:37:45;;;;;;;2.28;1.35;;;20.60;47.10;;;;;;4998894;28;20057;-64
2022/04/20 09:40:13;;;;;;;1.38;1.17;;;19.80;46.70;;;;;;5016597;28;20046;-65
2022/04/20 09:43:02;;;;;;;2.35;1.23;;;20.20;47.10;;;;;;5015386;28;20041;-64
2022/04/20 09:45:28;;;;;;;1.27;1.15;;;20.10;46.70;;;;;;5016295;28;20762;-64
2022/04/20 09:50:39;;;;;;;1.83;1.40;;;20.00;46.80;;;;;;5015004;28;20152;-64
2022/04/20 09:53:10;;;;;;;1.88;1.77;;;20.30;47.10;;;;;;5029318;28;20048;-65
2022/04/20 09:55:37;;;;;;;1.98;1.40;;;20.40;46.60;;;;;;5018550;28;20044;-64
2022/04/20 09:58:19;;;;;;;1.60;1.50;;;20.00;46.80;;;;;;4996030;28;20224;-64
2022/04/20 10:00:54;;;;;;;1.23;1.13;;;20.30;47.00;;;;;;4978497;28;20477;-64
2022/04/20 10:03:31;;;;;;;1.27;1.17;;;20.30;47.00;;;;;;4995164;28;20056;-64
2022/04/20 10:05:57;;;;;;;3.47;1.55;;;20.50;47.50;;;;;;4995543;28;20123;-64
2022/04/20 10:08:23;;;;;;;2.67;1.50;;;21.00;47.40;;;;;;4995828;28;20045;-64
2022/04/20 10:10:51;;;;;;;1.65;1.55;;;21.00;47.50;;;;;;4995334;28;20050;-64
2022/04/20 10:13:17;;;;;;;2.60;1.50;;;20.70;47.10;;;;;;4995563;28;20445;-64
2022/04/20 10:16:07;;;;;;;4.85;1.70;;;20.60;47.70;;;;;;4994626;28;20065;-64
2022/04/20 10:18:38;;;;;;;1.67;1.50;;;21.00;48.20;;;;;;4995554;28;20060;-64
2022/04/20 10:21:13;;;;;;;2.85;1.50;;;21.20;48.10;;;;;;4995513;28;20046;-64
2022/04/20 10:23:44;;;;;;;1.65;1.52;;;21.20;48.20;;;;;;4994163;28;20077;-64
2022/04/20 10:26:10;;;;;;;2.40;1.40;;;21.20;47.90;;;;;;4995234;28;20041;-64
2022/04/20 10:28:55;;;;;;;1.98;1.70;;;21.30;47.90;;;;;;4995069;28;20041;-64
2022/04/20 10:31:28;;;;;;;1.55;1.45;;;21.00;46.60;;;;;;4994875;28;20069;-64
2022/04/20 10:33:54;;;;;;;;;;;20.80;46.50;;;;;;4996799;28;20161;-64
2022/04/20 10:36:32;;;;;;;1.50;1.30;;;20.60;46.40;;;;;;5014901;28;19929;-65
2022/04/20 10:39:22;;;;;;;1.60;1.50;;;20.80;47.20;;;;;;5014668;28;20107;-64
2022/04/20 10:42:10;;;;;;;2.13;1.52;;;21.00;46.30;;;;;;5014329;28;20120;-64
2022/04/20 10:45:05;;;;;;;3.33;1.65;;;21.10;46.50;;;;;;5013986;28;20052;-64
2022/04/20 10:47:36;;;;;;;1.88;1.40;;;20.90;47.00;;;;;;5014737;28;20099;-64
2022/04/20 10:50:15;;;;;;;1.27;1.20;;;20.90;46.50;;;;;;5014708;28;20046;-64
2022/04/20 10:52:46;;;;;;;1.77;1.67;;;19.80;45.50;;;;;;5023961;28;20144;-64
2022/04/20 10:55:11;;;;;;;2.10;1.90;;;19.50;46.20;;;;;;5025292;28;20073;-63
2022/04/20 10:57:39;;;;;;;1.95;1.25;;;18.60;47.50;;;;;;4976617;28;20160;-64
2022/04/20 11:00:20;;;;;;;2.50;1.45;;;18.20;46.90;;;;;;4995240;28;20584;-64
2022/04/20 11:02:50;;;;;;;4.18;1.75;;;17.60;47.90;;;;;;4995378;28;20049;-63
2022/04/20 11:05:22;;;;;;;1.95;1.80;;;17.60;48.00;;;;;;4998199;28;20041;-64
2022/04/20 11:08:07;;;;;;;2.00;1.80;;;17.70;48.20;;;;;;4981244;28;20470;-64
2022/04/20 11:10:36;;;;;;;5.88;1.70;;;17.20;48.40;;;;;;4999217;28;20084;-63
2022/04/20 11:19:06;;;;;;;1.50;1.33;;;17.00;48.40;;;;;;4999293;28;20839;-63
2022/04/20 11:21:33;;;;;;;1.60;1.50;;;17.00;49.10;;;;;;4998865;28;20157;-64
2022/04/20 11:24:09;;;;;;;2.63;1.70;;;16.90;48.60;;;;;;4998755;28;20049;-63
2022/04/20 11:26:40;;;;;;;2.40;1.42;;;17.00;49.30;;;;;;4998482;28;20129;-64
2022/04/20 11:29:17;;;;;;;2.83;1.50;;;17.10;48.60;;;;;;4998920;28;20776;-63
2022/04/20 11:31:45;;;;;;;2.28;1.38;;;17.10;48.50;;;;;;4997957;28;20058;-63
2022/04/20 11:34:11;;;;;;;1.60;1.30;;;17.20;48.20;;;;;;5000185;28;20134;-63
2022/04/20 11:36:40;;;;;;;1.98;1.15;;;17.00;48.30;;;;;;5017475;28;20048;-63
2022/04/20 11:39:06;;;;;;;1.63;1.30;;;17.00;48.30;;;;;;5018261;28;20116;-64
2022/04/20 11:41:32;;;;;;;1.23;1.13;;;17.00;47.70;;;;;;5017575;28;20067;-63
2022/04/20 11:43:59;;;;;;;1.27;1.20;;;17.10;47.90;;;;;;5018074;28;20120;-63
2022/04/20 11:46:25;;;;;;;1.63;1.40;;;17.20;47.60;;;;;;5018224;28;20460;-64
2022/04/20 11:48:56;;;;;;;3.60;1.63;;;17.10;47.70;;;;;;5000041;28;20069;-63
2022/04/20 11:51:28;;;;;;;2.70;1.80;;;17.10;48.40;;;;;;5018096;28;20080;-63
2022/04/20 11:53:54;;;;;;;5.45;2.00;;;17.20;48.70;;;;;;5018119;28;20056;-64
2022/04/20 11:56:37;;;;;;;1.80;1.42;;;17.00;48.60;;;;;;4999629;28;20061;-63
2022/04/20 11:59:06;;;;;;;2.03;1.50;;;17.20;49.20;;;;;;5017994;28;20053;-63
2022/04/20 12:01:36;;;;;;;1.45;1.30;;;17.20;49.00;;;;;;5016868;28;20143;-64
2022/04/20 12:04:10;;;;;;;2.65;1.40;;;17.20;48.90;;;;;;5017414;28;20049;-63
2022/04/20 12:06:36;;;;;;;3.00;1.05;;;17.20;48.70;;;;;;4999743;28;20057;-63
2022/04/20 12:09:02;;;;;;;0.95;0.95;;;17.30;48.50;;;;;;5016845;28;20054;-63
2022/04/20 12:11:32;;;;;;;6.25;1.38;;;17.30;48.70;;;;;;5017730;28;20096;-64
2022/04/20 12:13:58;;;;;;;2.03;1.30;;;17.50;49.10;;;;;;5016772;28;20760;-64
2022/04/20 12:16:24;;;;;;;1.48;1.38;;;17.40;49.70;;;;;;5017329;28;20107;-63
2022/04/20 12:18:50;;;;;;;2.60;1.00;;;17.30;49.60;;;;;;5017531;28;20103;-63
2022/04/20 12:21:35;;;;;;;1.52;1.20;;;17.40;49.50;;;;;;5017458;28;20037;-63
2022/04/20 12:24:01;;;;;;;2.92;1.40;;;17.50;49.40;;;;;;5016501;28;20060;-63
2022/04/20 12:26:28;;;;;;;1.40;1.30;;;17.40;49.40;;;;;;5017969;28;20045;-63
2022/04/20 12:28:58;;;;;;;1.10;1.00;;;17.50;49.60;;;;;;5018103;28;20077;-64
2022/04/20 12:31:25;;;;;;;2.92;1.48;;;17.50;50.20;;;;;;5017202;28;20564;-63
2022/04/20 12:34:00;;;;;;;1.50;1.40;;;17.60;49.80;;;;;;4982726;28;20081;-63
2022/04/20 12:36:26;;;;;;;1.25;0.90;;;17.60;49.40;;;;;;5015945;28;20551;-63
2022/04/20 12:38:52;;;;;;;1.15;0.98;;;17.70;49.90;;;;;;5017462;28;20054;-63
2022/04/20 12:41:37;;;;;;;1.33;1.10;;;17.70;49.40;;;;;;5017264;28;20726;-63
2022/04/20 12:44:37;;;;;;;1.20;1.10;;;17.50;48.90;;;;;;4999300;28;20045;-63
2022/04/20 12:47:26;;;;;;;2.03;1.20;;;17.50;49.90;;;;;;4999639;28;20054;-63
2022/04/20 12:49:59;;;;;;;1.20;1.10;;;17.60;49.80;;;;;;5017239;28;20045;-63
2022/04/20 12:52:27;;;;;;;2.35;1.38;;;17.50;50.40;;;;;;5025005;28;20048;-63
2022/04/20 12:54:56;;;;;;;1.20;1.10;;;17.60;50.10;;;;;;5014894;28;20119;-63
2022/04/20 13:02:57;;;;;;;1.60;1.48;;;17.50;50.90;;;;;;4997144;28;20112;-63
2022/04/20 13:05:23;;;;;;;1.50;1.40;;;17.60;51.30;;;;;;4996943;28;20064;-63
2022/04/20 13:07:48;;;;;;;3.33;1.48;;;17.70;51.30;;;;;;4997374;28;20082;-63
2022/04/20 13:10:14;;;;;;;2.65;1.50;;;17.50;51.30;;;;;;4997135;28;20099;-63
2022/04/20 13:12:50;;;;;;;1.85;1.50;;;17.60;51.40;;;;;;4996033;28;20738;-63
2022/04/20 13:15:16;;;;;;;2.22;1.50;;;18.30;52.20;;;;;;4979471;28;20460;-63
2022/04/20 13:17:42;;;;;;;1.92;1.55;;;17.90;51.50;;;;;;4996810;28;20050;-63
2022/04/20 13:20:08;;;;;;;2.83;2.08;;;18.00;51.60;;;;;;4996564;28;20046;-63
2022/04/20 13:22:34;;;;;;;2.05;1.83;;;18.10;51.60;;;;;;4997626;28;20488;-63
2022/04/20 13:27:56;;;;;;;2.50;2.20;;;18.30;51.70;;;;;;4996112;28;20096;-63
2022/04/20 13:30:27;;;;;;;2.80;2.38;;;18.10;52.50;;;;;;4996624;28;20049;-63
2022/04/20 13:32:56;;;;;;;2.10;1.88;;;17.90;54.30;;;;;;4978855;28;20085;-63